sensor_id;sensor_type;location;lat;lon;timestamp;P1;durP1;ratioP1;P2;durP2;ratioP2
37445;SDS011;23307;51.136;14.942;2023-04-24T00:00:39;4.07;;;3.50;;
37445;SDS011;23307;51.136;14.942;2023-04-24T00:03:05;4.35;;;3.80;;
37445;SDS011;23307;51.136;14.942;2023-04-24T00:05:31;4.22;;;3.35;;
37445;SDS011;23307;51.136;14.942;2023-04-24T00:07:57;4.80;;;3.50;;
37445;SDS011;23307;51.136;14.942;2023-04-24T00:10:23;4.45;;;3.75;;
37445;SDS011;23307;51.136;14.942;2023-04-24T00:12:48;4.82;;;3.42;;
37445;SDS011;23307;51.136;14.942;2023-04-24T00:15:14;3.95;;;3.53;;
37445;SDS011;23307;51.136;14.942;2023-04-24T00:17:39;5.32;;;3.67;;
37445;SDS011;23307;51.136;14.942;2023-04-24T00:20:05;3.80;;;3.40;;
37445;SDS011;23307;51.136;14.942;2023-04-24T00:22:32;4.00;;;3.60;;
37445;SDS011;23307;51.136;14.942;2023-04-24T00:24:57;4.40;;;3.55;;
37445;SDS011;23307;51.136;14.942;2023-04-24T00:27:23;4.30;;;3.55;;
37445;SDS011;23307;51.136;14.942;2023-04-24T00:29:48;4.82;;;3.70;;
37445;SDS011;23307;51.136;14.942;2023-04-24T00:32:14;3.95;;;3.55;;
37445;SDS011;23307;51.136;14.942;2023-04-24T00:34:40;4.28;;;3.63;;
37445;SDS011;23307;51.136;14.942;2023-04-24T00:37:05;4.30;;;3.33;;
37445;SDS011;23307;51.136;14.942;2023-04-24T00:39:31;3.95;;;3.58;;
37445;SDS011;23307;51.136;14.942;2023-04-24T00:41:57;4.88;;;3.90;;
37445;SDS011;23307;51.136;14.942;2023-04-24T00:44:22;3.83;;;3.40;;
37445;SDS011;23307;51.136;14.942;2023-04-24T00:46:48;4.43;;;3.80;;
37445;SDS011;23307;51.136;14.942;2023-04-24T00:49:19;4.15;;;3.75;;
37445;SDS011;23307;51.136;14.942;2023-04-24T00:51:46;4.00;;;3.60;;
37445;SDS011;23307;51.136;14.942;2023-04-24T00:54:12;6.38;;;4.07;;
37445;SDS011;23307;51.136;14.942;2023-04-24T00:56:38;6.25;;;3.75;;
37445;SDS011;23307;51.136;14.942;2023-04-24T00:59:04;5.07;;;3.85;;
37445;SDS011;23307;51.136;14.942;2023-04-24T01:01:31;7.38;;;4.32;;
37445;SDS011;23307;51.136;14.942;2023-04-24T01:03:57;5.75;;;4.10;;
37445;SDS011;23307;51.136;14.942;2023-04-24T01:06:23;5.70;;;3.47;;
37445;SDS011;23307;51.136;14.942;2023-04-24T01:08:53;6.47;;;4.00;;
37445;SDS011;23307;51.136;14.942;2023-04-24T01:11:20;4.93;;;3.53;;
37445;SDS011;23307;51.136;14.942;2023-04-24T01:13:46;4.93;;;4.25;;
37445;SDS011;23307;51.136;14.942;2023-04-24T01:16:13;7.85;;;4.20;;
37445;SDS011;23307;51.136;14.942;2023-04-24T01:18:39;5.15;;;4.28;;
37445;SDS011;23307;51.136;14.942;2023-04-24T01:21:06;5.60;;;4.22;;
37445;SDS011;23307;51.136;14.942;2023-04-24T01:23:33;4.25;;;3.75;;
37445;SDS011;23307;51.136;14.942;2023-04-24T01:25:58;6.32;;;3.90;;
37445;SDS011;23307;51.136;14.942;2023-04-24T01:28:24;5.25;;;4.35;;
37445;SDS011;23307;51.136;14.942;2023-04-24T01:30:50;4.97;;;4.03;;
37445;SDS011;23307;51.136;14.942;2023-04-24T01:33:16;5.70;;;4.25;;
37445;SDS011;23307;51.136;14.942;2023-04-24T01:35:42;4.57;;;3.85;;
37445;SDS011;23307;51.136;14.942;2023-04-24T01:38:07;4.90;;;4.40;;
37445;SDS011;23307;51.136;14.942;2023-04-24T01:40:33;4.80;;;4.38;;
37445;SDS011;23307;51.136;14.942;2023-04-24T01:42:59;4.80;;;4.10;;
37445;SDS011;23307;51.136;14.942;2023-04-24T01:45:25;4.82;;;4.38;;
37445;SDS011;23307;51.136;14.942;2023-04-24T01:47:50;4.65;;;4.15;;
37445;SDS011;23307;51.136;14.942;2023-04-24T01:50:16;5.32;;;4.25;;
37445;SDS011;23307;51.136;14.942;2023-04-24T01:52:43;5.13;;;4.40;;
37445;SDS011;23307;51.136;14.942;2023-04-24T01:55:08;6.00;;;4.57;;
37445;SDS011;23307;51.136;14.942;2023-04-24T01:57:34;5.30;;;4.20;;
37445;SDS011;23307;51.136;14.942;2023-04-24T02:00:00;5.45;;;4.22;;
37445;SDS011;23307;51.136;14.942;2023-04-24T02:02:28;6.05;;;4.53;;
37445;SDS011;23307;51.136;14.942;2023-04-24T02:04:54;5.65;;;4.47;;
37445;SDS011;23307;51.136;14.942;2023-04-24T02:07:20;6.50;;;4.60;;
37445;SDS011;23307;51.136;14.942;2023-04-24T02:09:45;4.75;;;4.13;;
37445;SDS011;23307;51.136;14.942;2023-04-24T02:12:11;5.47;;;4.47;;
37445;SDS011;23307;51.136;14.942;2023-04-24T02:14:36;6.32;;;4.40;;
37445;SDS011;23307;51.136;14.942;2023-04-24T02:17:02;5.22;;;4.70;;
37445;SDS011;23307;51.136;14.942;2023-04-24T02:19:28;6.13;;;4.90;;
37445;SDS011;23307;51.136;14.942;2023-04-24T02:21:53;6.22;;;4.75;;
37445;SDS011;23307;51.136;14.942;2023-04-24T02:24:19;9.18;;;4.60;;
37445;SDS011;23307;51.136;14.942;2023-04-24T02:26:45;8.18;;;4.82;;
37445;SDS011;23307;51.136;14.942;2023-04-24T02:29:10;5.45;;;4.57;;
37445;SDS011;23307;51.136;14.942;2023-04-24T02:31:36;7.78;;;4.35;;
37445;SDS011;23307;51.136;14.942;2023-04-24T02:34:01;5.00;;;4.50;;
37445;SDS011;23307;51.136;14.942;2023-04-24T02:36:27;7.82;;;4.65;;
37445;SDS011;23307;51.136;14.942;2023-04-24T02:38:52;4.97;;;4.45;;
37445;SDS011;23307;51.136;14.942;2023-04-24T02:41:18;6.45;;;4.75;;
37445;SDS011;23307;51.136;14.942;2023-04-24T02:43:43;8.30;;;4.82;;
37445;SDS011;23307;51.136;14.942;2023-04-24T02:46:09;5.18;;;4.70;;
37445;SDS011;23307;51.136;14.942;2023-04-24T02:48:34;5.68;;;4.15;;
37445;SDS011;23307;51.136;14.942;2023-04-24T02:51:00;5.80;;;4.50;;
37445;SDS011;23307;51.136;14.942;2023-04-24T02:53:25;7.40;;;4.93;;
37445;SDS011;23307;51.136;14.942;2023-04-24T02:55:51;5.80;;;4.85;;
37445;SDS011;23307;51.136;14.942;2023-04-24T02:58:16;6.00;;;5.00;;
37445;SDS011;23307;51.136;14.942;2023-04-24T03:00:42;5.85;;;4.95;;
37445;SDS011;23307;51.136;14.942;2023-04-24T03:03:08;6.57;;;4.70;;
37445;SDS011;23307;51.136;14.942;2023-04-24T03:05:33;5.43;;;4.65;;
37445;SDS011;23307;51.136;14.942;2023-04-24T03:07:59;5.00;;;4.50;;
37445;SDS011;23307;51.136;14.942;2023-04-24T03:10:25;5.43;;;4.47;;
37445;SDS011;23307;51.136;14.942;2023-04-24T03:12:50;6.20;;;4.70;;
37445;SDS011;23307;51.136;14.942;2023-04-24T03:15:16;5.15;;;4.55;;
37445;SDS011;23307;51.136;14.942;2023-04-24T03:17:41;5.05;;;4.55;;
37445;SDS011;23307;51.136;14.942;2023-04-24T03:20:07;6.63;;;4.40;;
37445;SDS011;23307;51.136;14.942;2023-04-24T03:22:33;5.43;;;4.53;;
37445;SDS011;23307;51.136;14.942;2023-04-24T03:24:59;6.22;;;4.70;;
37445;SDS011;23307;51.136;14.942;2023-04-24T03:27:25;5.47;;;4.68;;
37445;SDS011;23307;51.136;14.942;2023-04-24T03:29:51;4.75;;;4.22;;
37445;SDS011;23307;51.136;14.942;2023-04-24T03:32:20;4.85;;;4.35;;
37445;SDS011;23307;51.136;14.942;2023-04-24T03:34:48;5.03;;;4.43;;
37445;SDS011;23307;51.136;14.942;2023-04-24T03:37:15;5.80;;;4.82;;
37445;SDS011;23307;51.136;14.942;2023-04-24T03:39:41;4.95;;;4.55;;
37445;SDS011;23307;51.136;14.942;2023-04-24T03:42:06;6.63;;;5.13;;
37445;SDS011;23307;51.136;14.942;2023-04-24T03:44:33;5.95;;;4.70;;
37445;SDS011;23307;51.136;14.942;2023-04-24T03:46:59;6.47;;;5.35;;
37445;SDS011;23307;51.136;14.942;2023-04-24T03:49:25;5.40;;;4.82;;
37445;SDS011;23307;51.136;14.942;2023-04-24T03:51:50;6.05;;;4.90;;
37445;SDS011;23307;51.136;14.942;2023-04-24T03:54:17;5.55;;;5.05;;
37445;SDS011;23307;51.136;14.942;2023-04-24T03:56:42;5.45;;;4.95;;
37445;SDS011;23307;51.136;14.942;2023-04-24T03:59:08;6.75;;;5.32;;
37445;SDS011;23307;51.136;14.942;2023-04-24T04:01:33;6.10;;;5.20;;
37445;SDS011;23307;51.136;14.942;2023-04-24T04:04:02;5.60;;;5.10;;
37445;SDS011;23307;51.136;14.942;2023-04-24T04:06:28;5.72;;;5.10;;
37445;SDS011;23307;51.136;14.942;2023-04-24T04:08:53;5.05;;;4.57;;
37445;SDS011;23307;51.136;14.942;2023-04-24T04:11:19;6.47;;;5.60;;
37445;SDS011;23307;51.136;14.942;2023-04-24T04:13:44;5.55;;;5.03;;
37445;SDS011;23307;51.136;14.942;2023-04-24T04:16:12;6.75;;;5.63;;
37445;SDS011;23307;51.136;14.942;2023-04-24T04:18:38;6.28;;;5.55;;
37445;SDS011;23307;51.136;14.942;2023-04-24T04:21:03;7.15;;;6.45;;
37445;SDS011;23307;51.136;14.942;2023-04-24T04:23:29;6.93;;;6.25;;
37445;SDS011;23307;51.136;14.942;2023-04-24T04:25:54;8.15;;;6.05;;
37445;SDS011;23307;51.136;14.942;2023-04-24T04:28:20;7.40;;;6.65;;
37445;SDS011;23307;51.136;14.942;2023-04-24T04:30:46;6.93;;;6.18;;
37445;SDS011;23307;51.136;14.942;2023-04-24T04:33:12;10.00;;;6.25;;
37445;SDS011;23307;51.136;14.942;2023-04-24T04:35:38;6.72;;;5.90;;
37445;SDS011;23307;51.136;14.942;2023-04-24T04:38:03;7.55;;;6.50;;
37445;SDS011;23307;51.136;14.942;2023-04-24T04:40:29;7.15;;;6.45;;
37445;SDS011;23307;51.136;14.942;2023-04-24T04:42:55;6.90;;;6.03;;
37445;SDS011;23307;51.136;14.942;2023-04-24T04:45:20;7.07;;;6.20;;
37445;SDS011;23307;51.136;14.942;2023-04-24T04:47:46;6.80;;;6.07;;
37445;SDS011;23307;51.136;14.942;2023-04-24T04:50:12;6.85;;;6.07;;
37445;SDS011;23307;51.136;14.942;2023-04-24T04:52:38;7.32;;;6.63;;
37445;SDS011;23307;51.136;14.942;2023-04-24T04:55:04;7.68;;;6.97;;
37445;SDS011;23307;51.136;14.942;2023-04-24T04:57:30;7.15;;;6.43;;
37445;SDS011;23307;51.136;14.942;2023-04-24T04:59:56;9.18;;;6.47;;
37445;SDS011;23307;51.136;14.942;2023-04-24T05:02:21;7.15;;;6.45;;
37445;SDS011;23307;51.136;14.942;2023-04-24T05:04:47;7.68;;;6.07;;
37445;SDS011;23307;51.136;14.942;2023-04-24T05:07:12;7.68;;;6.47;;
37445;SDS011;23307;51.136;14.942;2023-04-24T05:09:38;7.78;;;6.78;;
37445;SDS011;23307;51.136;14.942;2023-04-24T05:12:03;7.55;;;6.75;;
37445;SDS011;23307;51.136;14.942;2023-04-24T05:14:29;7.85;;;7.05;;
37445;SDS011;23307;51.136;14.942;2023-04-24T05:16:54;8.85;;;6.78;;
37445;SDS011;23307;51.136;14.942;2023-04-24T05:19:20;7.80;;;6.32;;
37445;SDS011;23307;51.136;14.942;2023-04-24T05:21:45;7.82;;;6.75;;
37445;SDS011;23307;51.136;14.942;2023-04-24T05:24:11;7.65;;;6.85;;
37445;SDS011;23307;51.136;14.942;2023-04-24T05:26:36;7.43;;;6.50;;
37445;SDS011;23307;51.136;14.942;2023-04-24T05:29:02;8.23;;;6.80;;
37445;SDS011;23307;51.136;14.942;2023-04-24T05:31:28;7.50;;;6.80;;
37445;SDS011;23307;51.136;14.942;2023-04-24T05:33:53;7.50;;;6.35;;
37445;SDS011;23307;51.136;14.942;2023-04-24T05:36:19;8.88;;;7.10;;
37445;SDS011;23307;51.136;14.942;2023-04-24T05:38:44;7.22;;;6.50;;
37445;SDS011;23307;51.136;14.942;2023-04-24T05:41:10;8.10;;;7.30;;
37445;SDS011;23307;51.136;14.942;2023-04-24T05:43:35;8.57;;;7.57;;
37445;SDS011;23307;51.136;14.942;2023-04-24T05:46:01;10.20;;;7.80;;
37445;SDS011;23307;51.136;14.942;2023-04-24T05:48:26;9.95;;;7.97;;
37445;SDS011;23307;51.136;14.942;2023-04-24T05:50:52;8.88;;;7.97;;
37445;SDS011;23307;51.136;14.942;2023-04-24T05:53:18;9.82;;;8.00;;
37445;SDS011;23307;51.136;14.942;2023-04-24T05:55:43;8.80;;;7.85;;
37445;SDS011;23307;51.136;14.942;2023-04-24T05:58:09;8.25;;;7.32;;
37445;SDS011;23307;51.136;14.942;2023-04-24T06:00:35;8.02;;;7.22;;
37445;SDS011;23307;51.136;14.942;2023-04-24T06:03:01;9.52;;;7.97;;
37445;SDS011;23307;51.136;14.942;2023-04-24T06:05:28;8.63;;;7.70;;
37445;SDS011;23307;51.136;14.942;2023-04-24T06:07:55;7.75;;;7.05;;
37445;SDS011;23307;51.136;14.942;2023-04-24T06:10:20;8.60;;;7.03;;
37445;SDS011;23307;51.136;14.942;2023-04-24T06:12:46;6.85;;;6.15;;
37445;SDS011;23307;51.136;14.942;2023-04-24T06:15:11;7.10;;;6.40;;
37445;SDS011;23307;51.136;14.942;2023-04-24T06:17:37;8.93;;;7.40;;
37445;SDS011;23307;51.136;14.942;2023-04-24T06:20:03;7.95;;;7.15;;
37445;SDS011;23307;51.136;14.942;2023-04-24T06:22:31;7.72;;;7.03;;
37445;SDS011;23307;51.136;14.942;2023-04-24T06:24:56;9.85;;;6.95;;
37445;SDS011;23307;51.136;14.942;2023-04-24T06:27:22;7.63;;;6.93;;
37445;SDS011;23307;51.136;14.942;2023-04-24T06:29:47;9.30;;;6.85;;
37445;SDS011;23307;51.136;14.942;2023-04-24T06:32:19;8.68;;;7.78;;
37445;SDS011;23307;51.136;14.942;2023-04-24T06:34:48;7.97;;;7.15;;
37445;SDS011;23307;51.136;14.942;2023-04-24T06:37:15;11.00;;;7.10;;
37445;SDS011;23307;51.136;14.942;2023-04-24T06:39:41;7.53;;;6.70;;
37445;SDS011;23307;51.136;14.942;2023-04-24T06:42:06;8.57;;;7.18;;
37445;SDS011;23307;51.136;14.942;2023-04-24T06:44:34;8.43;;;6.95;;
37445;SDS011;23307;51.136;14.942;2023-04-24T06:47:05;7.75;;;7.05;;
37445;SDS011;23307;51.136;14.942;2023-04-24T06:49:37;8.05;;;7.25;;
37445;SDS011;23307;51.136;14.942;2023-04-24T06:52:02;7.10;;;6.40;;
37445;SDS011;23307;51.136;14.942;2023-04-24T06:54:28;6.95;;;6.10;;
37445;SDS011;23307;51.136;14.942;2023-04-24T06:56:54;7.18;;;6.50;;
37445;SDS011;23307;51.136;14.942;2023-04-24T06:59:22;7.20;;;6.38;;
37445;SDS011;23307;51.136;14.942;2023-04-24T07:01:50;6.72;;;5.50;;
37445;SDS011;23307;51.136;14.942;2023-04-24T07:04:16;9.23;;;5.80;;
37445;SDS011;23307;51.136;14.942;2023-04-24T07:06:42;6.30;;;5.70;;
37445;SDS011;23307;51.136;14.942;2023-04-24T07:09:08;6.13;;;5.20;;
37445;SDS011;23307;51.136;14.942;2023-04-24T07:11:34;5.60;;;5.10;;
37445;SDS011;23307;51.136;14.942;2023-04-24T07:14:00;7.00;;;4.65;;
37445;SDS011;23307;51.136;14.942;2023-04-24T07:16:25;4.32;;;3.92;;
37445;SDS011;23307;51.136;14.942;2023-04-24T07:18:52;4.60;;;4.20;;
37445;SDS011;23307;51.136;14.942;2023-04-24T07:21:17;4.78;;;4.28;;
37445;SDS011;23307;51.136;14.942;2023-04-24T07:23:42;5.10;;;4.60;;
37445;SDS011;23307;51.136;14.942;2023-04-24T07:26:08;6.72;;;3.85;;
37445;SDS011;23307;51.136;14.942;2023-04-24T07:28:33;4.45;;;4.05;;
37445;SDS011;23307;51.136;14.942;2023-04-24T07:30:59;4.70;;;4.25;;
37445;SDS011;23307;51.136;14.942;2023-04-24T07:33:25;4.63;;;4.10;;
37445;SDS011;23307;51.136;14.942;2023-04-24T07:35:51;4.60;;;3.67;;
37445;SDS011;23307;51.136;14.942;2023-04-24T07:38:17;5.88;;;3.97;;
37445;SDS011;23307;51.136;14.942;2023-04-24T07:40:46;4.78;;;4.28;;
37445;SDS011;23307;51.136;14.942;2023-04-24T07:43:12;4.68;;;4.15;;
37445;SDS011;23307;51.136;14.942;2023-04-24T07:45:37;5.22;;;4.72;;
37445;SDS011;23307;51.136;14.942;2023-04-24T07:48:04;5.97;;;5.10;;
37445;SDS011;23307;51.136;14.942;2023-04-24T07:50:30;5.68;;;4.95;;
37445;SDS011;23307;51.136;14.942;2023-04-24T07:52:55;6.55;;;5.00;;
37445;SDS011;23307;51.136;14.942;2023-04-24T07:55:21;6.38;;;5.15;;
37445;SDS011;23307;51.136;14.942;2023-04-24T07:57:46;5.18;;;4.65;;
37445;SDS011;23307;51.136;14.942;2023-04-24T08:00:12;7.80;;;4.65;;
37445;SDS011;23307;51.136;14.942;2023-04-24T08:02:38;5.00;;;4.50;;
37445;SDS011;23307;51.136;14.942;2023-04-24T08:05:04;5.75;;;4.75;;
37445;SDS011;23307;51.136;14.942;2023-04-24T08:07:29;5.43;;;4.68;;
37445;SDS011;23307;51.136;14.942;2023-04-24T08:09:55;6.10;;;4.20;;
37445;SDS011;23307;51.136;14.942;2023-04-24T08:12:21;4.03;;;3.55;;
37445;SDS011;23307;51.136;14.942;2023-04-24T08:14:46;4.45;;;4.03;;
37445;SDS011;23307;51.136;14.942;2023-04-24T08:17:12;4.00;;;3.60;;
37445;SDS011;23307;51.136;14.942;2023-04-24T08:19:39;3.83;;;3.42;;
37445;SDS011;23307;51.136;14.942;2023-04-24T08:22:13;5.53;;;3.67;;
37445;SDS011;23307;51.136;14.942;2023-04-24T08:24:42;5.50;;;3.90;;
37445;SDS011;23307;51.136;14.942;2023-04-24T08:27:08;4.50;;;3.47;;
37445;SDS011;23307;51.136;14.942;2023-04-24T08:29:34;5.75;;;3.72;;
37445;SDS011;23307;51.136;14.942;2023-04-24T08:32:00;5.30;;;3.65;;
37445;SDS011;23307;51.136;14.942;2023-04-24T08:34:25;3.97;;;3.58;;
37445;SDS011;23307;51.136;14.942;2023-04-24T08:36:51;4.10;;;3.70;;
37445;SDS011;23307;51.136;14.942;2023-04-24T08:39:16;4.18;;;3.40;;
37445;SDS011;23307;51.136;14.942;2023-04-24T08:41:43;4.20;;;3.60;;
37445;SDS011;23307;51.136;14.942;2023-04-24T08:44:10;4.75;;;3.33;;
37445;SDS011;23307;51.136;14.942;2023-04-24T08:46:36;4.20;;;3.17;;
37445;SDS011;23307;51.136;14.942;2023-04-24T08:49:02;3.83;;;3.28;;
37445;SDS011;23307;51.136;14.942;2023-04-24T08:51:29;5.10;;;3.72;;
37445;SDS011;23307;51.136;14.942;2023-04-24T08:53:56;5.07;;;3.50;;
37445;SDS011;23307;51.136;14.942;2023-04-24T08:56:22;4.18;;;3.15;;
37445;SDS011;23307;51.136;14.942;2023-04-24T08:58:48;3.90;;;3.50;;
37445;SDS011;23307;51.136;14.942;2023-04-24T09:01:15;4.88;;;3.97;;
37445;SDS011;23307;51.136;14.942;2023-04-24T09:03:43;5.03;;;4.20;;
37445;SDS011;23307;51.136;14.942;2023-04-24T09:06:09;5.75;;;4.00;;
37445;SDS011;23307;51.136;14.942;2023-04-24T09:08:36;4.20;;;3.72;;
37445;SDS011;23307;51.136;14.942;2023-04-24T09:11:03;5.03;;;4.15;;
37445;SDS011;23307;51.136;14.942;2023-04-24T09:13:29;5.93;;;4.40;;
37445;SDS011;23307;51.136;14.942;2023-04-24T09:15:56;4.63;;;4.10;;
37445;SDS011;23307;51.136;14.942;2023-04-24T09:18:22;4.13;;;3.72;;
37445;SDS011;23307;51.136;14.942;2023-04-24T09:20:57;3.92;;;3.50;;
37445;SDS011;23307;51.136;14.942;2023-04-24T09:23:31;4.70;;;3.78;;
37445;SDS011;23307;51.136;14.942;2023-04-24T09:25:57;3.90;;;3.50;;
37445;SDS011;23307;51.136;14.942;2023-04-24T09:28:25;3.33;;;3.03;;
37445;SDS011;23307;51.136;14.942;2023-04-24T09:33:33;6.47;;;3.40;;
37445;SDS011;23307;51.136;14.942;2023-04-24T09:35:59;3.85;;;3.55;;
37445;SDS011;23307;51.136;14.942;2023-04-24T09:38:37;3.97;;;3.60;;
37445;SDS011;23307;51.136;14.942;2023-04-24T09:41:07;4.32;;;3.40;;
37445;SDS011;23307;51.136;14.942;2023-04-24T09:43:33;4.20;;;3.80;;
37445;SDS011;23307;51.136;14.942;2023-04-24T09:46:04;4.70;;;4.30;;
37445;SDS011;23307;51.136;14.942;2023-04-24T09:48:35;3.78;;;3.47;;
37445;SDS011;23307;51.136;14.942;2023-04-24T09:51:03;4.88;;;4.25;;
37445;SDS011;23307;51.136;14.942;2023-04-24T09:53:31;4.03;;;3.60;;
37445;SDS011;23307;51.136;14.942;2023-04-24T09:56:06;4.28;;;3.88;;
37445;SDS011;23307;51.136;14.942;2023-04-24T09:58:34;4.50;;;4.00;;
37445;SDS011;23307;51.136;14.942;2023-04-24T10:01:00;5.10;;;4.60;;
37445;SDS011;23307;51.136;14.942;2023-04-24T10:03:26;5.03;;;4.18;;
37445;SDS011;23307;51.136;14.942;2023-04-24T10:05:58;5.10;;;4.47;;
37445;SDS011;23307;51.136;14.942;2023-04-24T10:08:24;5.03;;;4.63;;
37445;SDS011;23307;51.136;14.942;2023-04-24T10:10:51;4.40;;;4.00;;
37445;SDS011;23307;51.136;14.942;2023-04-24T10:13:17;5.88;;;4.10;;
37445;SDS011;23307;51.136;14.942;2023-04-24T10:15:43;4.90;;;4.40;;
37445;SDS011;23307;51.136;14.942;2023-04-24T10:18:09;4.68;;;4.13;;
37445;SDS011;23307;51.136;14.942;2023-04-24T10:20:36;4.30;;;3.90;;
37445;SDS011;23307;51.136;14.942;2023-04-24T10:23:03;4.90;;;4.00;;
37445;SDS011;23307;51.136;14.942;2023-04-24T10:25:30;4.07;;;3.78;;
37445;SDS011;23307;51.136;14.942;2023-04-24T10:27:58;4.32;;;3.85;;
37445;SDS011;23307;51.136;14.942;2023-04-24T10:30:26;4.50;;;4.10;;
37445;SDS011;23307;51.136;14.942;2023-04-24T10:32:52;4.63;;;4.22;;
37445;SDS011;23307;51.136;14.942;2023-04-24T10:35:18;4.35;;;3.97;;
37445;SDS011;23307;51.136;14.942;2023-04-24T10:37:52;4.47;;;3.78;;
37445;SDS011;23307;51.136;14.942;2023-04-24T10:40:26;4.15;;;3.58;;
37445;SDS011;23307;51.136;14.942;2023-04-24T10:42:55;4.43;;;3.75;;
37445;SDS011;23307;51.136;14.942;2023-04-24T10:45:22;4.05;;;3.65;;
37445;SDS011;23307;51.136;14.942;2023-04-24T10:47:58;6.22;;;3.58;;
37445;SDS011;23307;51.136;14.942;2023-04-24T10:50:26;3.72;;;3.42;;
37445;SDS011;23307;51.136;14.942;2023-04-24T10:52:52;4.07;;;2.95;;
37445;SDS011;23307;51.136;14.942;2023-04-24T10:55:39;4.32;;;2.83;;
37445;SDS011;23307;51.136;14.942;2023-04-24T10:58:09;3.75;;;2.70;;
37445;SDS011;23307;51.136;14.942;2023-04-24T11:00:39;3.70;;;3.33;;
37445;SDS011;23307;51.136;14.942;2023-04-24T11:03:06;4.93;;;3.00;;
37445;SDS011;23307;51.136;14.942;2023-04-24T11:05:51;3.95;;;3.55;;
37445;SDS011;23307;51.136;14.942;2023-04-24T11:08:38;3.22;;;2.92;;
37445;SDS011;23307;51.136;14.942;2023-04-24T11:11:13;4.10;;;3.40;;
37445;SDS011;23307;51.136;14.942;2023-04-24T11:16:35;3.75;;;3.45;;
37445;SDS011;23307;51.136;14.942;2023-04-24T11:21:45;3.92;;;3.47;;
37445;SDS011;23307;51.136;14.942;2023-04-24T11:29:39;2.95;;;2.75;;
37445;SDS011;23307;51.136;14.942;2023-04-24T11:32:16;3.58;;;3.20;;
37445;SDS011;23307;51.136;14.942;2023-04-24T11:34:56;3.45;;;3.15;;
37445;SDS011;23307;51.136;14.942;2023-04-24T11:37:24;4.72;;;3.28;;
37445;SDS011;23307;51.136;14.942;2023-04-24T11:39:53;3.55;;;3.22;;
37445;SDS011;23307;51.136;14.942;2023-04-24T11:42:21;3.30;;;3.00;;
37445;SDS011;23307;51.136;14.942;2023-04-24T11:44:48;3.38;;;3.10;;
37445;SDS011;23307;51.136;14.942;2023-04-24T11:47:14;3.28;;;3.03;;
37445;SDS011;23307;51.136;14.942;2023-04-24T11:49:40;3.03;;;2.83;;
37445;SDS011;23307;51.136;14.942;2023-04-24T11:52:06;3.17;;;2.88;;
37445;SDS011;23307;51.136;14.942;2023-04-24T11:54:31;3.03;;;2.83;;
37445;SDS011;23307;51.136;14.942;2023-04-24T11:56:57;2.92;;;2.70;;
37445;SDS011;23307;51.136;14.942;2023-04-24T11:59:23;3.40;;;3.10;;
37445;SDS011;23307;51.136;14.942;2023-04-24T12:01:48;2.67;;;2.40;;
37445;SDS011;23307;51.136;14.942;2023-04-24T12:04:15;2.50;;;2.40;;
37445;SDS011;23307;51.136;14.942;2023-04-24T12:09:26;2.30;;;2.20;;
37445;SDS011;23307;51.136;14.942;2023-04-24T12:11:52;2.67;;;2.30;;
37445;SDS011;23307;51.136;14.942;2023-04-24T12:14:18;2.20;;;2.05;;
37445;SDS011;23307;51.136;14.942;2023-04-24T12:16:47;2.13;;;1.92;;
37445;SDS011;23307;51.136;14.942;2023-04-24T12:19:17;2.25;;;2.05;;
37445;SDS011;23307;51.136;14.942;2023-04-24T12:21:45;1.90;;;1.80;;
37445;SDS011;23307;51.136;14.942;2023-04-24T12:24:30;1.95;;;1.85;;
37445;SDS011;23307;51.136;14.942;2023-04-24T12:26:56;1.90;;;1.80;;
37445;SDS011;23307;51.136;14.942;2023-04-24T12:29:23;2.67;;;1.95;;
37445;SDS011;23307;51.136;14.942;2023-04-24T12:31:49;1.70;;;1.60;;
37445;SDS011;23307;51.136;14.942;2023-04-24T12:34:19;2.00;;;1.80;;
37445;SDS011;23307;51.136;14.942;2023-04-24T12:36:46;2.40;;;1.98;;
37445;SDS011;23307;51.136;14.942;2023-04-24T12:39:18;3.00;;;1.70;;
37445;SDS011;23307;51.136;14.942;2023-04-24T12:41:54;2.15;;;1.88;;
37445;SDS011;23307;51.136;14.942;2023-04-24T12:44:31;1.60;;;1.50;;
37445;SDS011;23307;51.136;14.942;2023-04-24T12:46:59;1.70;;;1.60;;
37445;SDS011;23307;51.136;14.942;2023-04-24T12:49:25;1.95;;;1.52;;
37445;SDS011;23307;51.136;14.942;2023-04-24T12:51:51;1.83;;;1.73;;
37445;SDS011;23307;51.136;14.942;2023-04-24T12:54:16;1.73;;;1.58;;
37445;SDS011;23307;51.136;14.942;2023-04-24T12:56:42;1.38;;;1.27;;
37445;SDS011;23307;51.136;14.942;2023-04-24T12:59:08;2.35;;;1.33;;
37445;SDS011;23307;51.136;14.942;2023-04-24T13:01:33;1.42;;;1.33;;
37445;SDS011;23307;51.136;14.942;2023-04-24T13:03:59;1.58;;;1.48;;
37445;SDS011;23307;51.136;14.942;2023-04-24T13:06:24;1.20;;;1.15;;
37445;SDS011;23307;51.136;14.942;2023-04-24T13:08:51;3.30;;;1.48;;
37445;SDS011;23307;51.136;14.942;2023-04-24T13:11:16;1.52;;;1.42;;
37445;SDS011;23307;51.136;14.942;2023-04-24T13:13:42;1.50;;;1.40;;
37445;SDS011;23307;51.136;14.942;2023-04-24T13:16:08;1.17;;;1.10;;
37445;SDS011;23307;51.136;14.942;2023-04-24T13:18:33;1.83;;;1.35;;
37445;SDS011;23307;51.136;14.942;2023-04-24T13:20:59;1.25;;;1.15;;
37445;SDS011;23307;51.136;14.942;2023-04-24T13:23:24;1.60;;;1.20;;
37445;SDS011;23307;51.136;14.942;2023-04-24T13:25:50;1.20;;;1.10;;
37445;SDS011;23307;51.136;14.942;2023-04-24T13:28:15;1.65;;;1.35;;
37445;SDS011;23307;51.136;14.942;2023-04-24T13:30:41;1.30;;;1.20;;
37445;SDS011;23307;51.136;14.942;2023-04-24T13:33:07;1.38;;;1.27;;
37445;SDS011;23307;51.136;14.942;2023-04-24T13:35:32;1.42;;;1.33;;
37445;SDS011;23307;51.136;14.942;2023-04-24T13:37:58;1.75;;;1.10;;
37445;SDS011;23307;51.136;14.942;2023-04-24T13:40:23;1.95;;;1.30;;
37445;SDS011;23307;51.136;14.942;2023-04-24T13:42:49;4.53;;;1.50;;
37445;SDS011;23307;51.136;14.942;2023-04-24T13:45:14;1.70;;;1.60;;
37445;SDS011;23307;51.136;14.942;2023-04-24T13:47:40;1.60;;;1.50;;
37445;SDS011;23307;51.136;14.942;2023-04-24T13:50:07;2.13;;;1.92;;
37445;SDS011;23307;51.136;14.942;2023-04-24T13:52:33;2.13;;;1.83;;
37445;SDS011;23307;51.136;14.942;2023-04-24T13:54:59;2.13;;;1.92;;
37445;SDS011;23307;51.136;14.942;2023-04-24T13:57:24;2.53;;;2.33;;
37445;SDS011;23307;51.136;14.942;2023-04-24T13:59:50;2.58;;;2.38;;
37445;SDS011;23307;51.136;14.942;2023-04-24T14:02:16;3.28;;;2.97;;
37445;SDS011;23307;51.136;14.942;2023-04-24T14:04:41;2.67;;;2.03;;
37445;SDS011;23307;51.136;14.942;2023-04-24T14:07:07;2.20;;;1.20;;
37445;SDS011;23307;51.136;14.942;2023-04-24T14:09:33;1.10;;;1.00;;
37445;SDS011;23307;51.136;14.942;2023-04-24T14:11:59;1.60;;;0.95;;
37445;SDS011;23307;51.136;14.942;2023-04-24T14:14:26;3.20;;;1.08;;
37445;SDS011;23307;51.136;14.942;2023-04-24T14:16:52;1.35;;;1.17;;
37445;SDS011;23307;51.136;14.942;2023-04-24T14:19:17;1.65;;;1.10;;
37445;SDS011;23307;51.136;14.942;2023-04-24T14:21:43;2.45;;;1.33;;
37445;SDS011;23307;51.136;14.942;2023-04-24T14:24:08;2.05;;;1.00;;
37445;SDS011;23307;51.136;14.942;2023-04-24T14:26:34;0.93;;;0.90;;
37445;SDS011;23307;51.136;14.942;2023-04-24T14:29:00;1.10;;;1.00;;
37445;SDS011;23307;51.136;14.942;2023-04-24T14:31:25;1.27;;;0.80;;
37445;SDS011;23307;51.136;14.942;2023-04-24T14:33:52;1.38;;;0.82;;
37445;SDS011;23307;51.136;14.942;2023-04-24T14:36:17;1.05;;;0.82;;
37445;SDS011;23307;51.136;14.942;2023-04-24T14:38:43;2.25;;;1.05;;
37445;SDS011;23307;51.136;14.942;2023-04-24T14:41:09;3.20;;;1.92;;
37445;SDS011;23307;51.136;14.942;2023-04-24T14:43:36;1.52;;;1.10;;
37445;SDS011;23307;51.136;14.942;2023-04-24T14:46:02;1.73;;;1.15;;